Knobel, AR (72435)

1:04 PM CST on November 23, 2014 (GMT -0600)
Corning | Change Station
CLOSE
Current Station
Airport
Location: Corning,
Elevation: 292 ft
Nearby Weather Stations

Elev 292 ft 36.40 °N, 90.65 °W | Updated 9 minutes ago

Rain
Rain
57 °F
Feels Like 57 °F
N
14
Wind Variable Wind from SE
Gusts 17 mph

Today
High -- | Low -- °F
--% Chance of Precip.
Yesterday
High -- | Low -- °F
Precip. -- in
6:47 AM 4:49 PM
New Moon, 2% visible
Pressure 29.43 in
Visibility 3.0 miles
Clouds Few 700 ft
Dew Point 57 °F
Humidity 100%
Rainfall 0.71 in
Snow Depth Not available.
UV 3 out of 12
Pollen .40 out of 12
Air Quality Not available.
Flu Activity Not available.
METAR K4M9 231855Z AUTO 13012G15KT 3SM -RA FEW007 14/14 A2943 RMK AO2 P0005

More Conditions Fewer Conditions

Pressure 29.43 in
Visibility 3.0 miles
Clouds Few 700 ft
Dew Point 57 °F
Humidity 100%
Rainfall 0.71 in
Snow Depth Not available.
UV 3 out of 12
Pollen .40 out of 12
Air Quality Not available.
Flu Activity Not available.
METAR K4M9 231855Z AUTO 13012G15KT 3SM -RA FEW007 14/14 A2943 RMK AO2 P0005

More Conditions Fewer Conditions

10-Day Weather Forecast

Almanac

Astronomy

Nov. 23, 2014 Rise Set
Actual Time
Civil Twilight
Nautical Twilight
Astronomical Twilight
Moon
Length of Visible Light
Length of Day
Tomorrow will be .
, % of the Moon is Illuminated

Today's Extremes

State Highs State Lows

Community

WunderPhotos

Upload Photos

1,773,135 photos uploaded!

WunderBlogs® & News

Nearby

Air Quality

  Air Quality AQ Index Pollutant
Not available.

Snow Depth

Station Depth Elevation

Earthquake Activity

City Distance Mag. Time & Date
Minimum magnitude displayed is 2.5.

Coastal Water Temperatures

Place Temperature

Nearby Weather Stations